Terminal Aerodrome Forecast
Issued by NWS

Home | Current Version | Previous Version | Text Only | Print | Product List | Glossary Off
Versions: 1 2 3 4 5 6 7 8 9 10 11 12 13 14 15 16 17 18

173
FTUS43 KICT 290005 AAA
TAFHUT
TAF AMD
KHUT 290005Z 2900/2924 05009KT P6SM BKN070
     FM290500 04017KT P6SM SCT070 OVC150
     FM290700 04017KT P6SM SCT015 OVC050
     FM290900 05017KT P6SM VCSH OVC015=

USA.gov is the U.S. government's official web portal to all federal, state and local government web resources and services.